createdAt,value
2022-12-06T00:02:17.512Z,78922.50
2022-12-06T00:04:48.288Z,78899.41
2022-12-06T00:07:17.828Z,78921.88
2022-12-06T00:09:47.193Z,78921.22
2022-12-06T00:12:16.884Z,78906.75
2022-12-06T00:14:46.276Z,78888.22
2022-12-06T00:17:15.760Z,78879.63
2022-12-06T00:19:45.237Z,78892.88
2022-12-06T00:22:14.882Z,78898.19
2022-12-06T00:24:44.200Z,78918.00
2022-12-06T00:27:15.089Z,78929.91
2022-12-06T00:29:44.988Z,78909.41
2022-12-06T00:32:19.218Z,78885.69
2022-12-06T00:34:49.222Z,78915.44
2022-12-06T00:37:22.081Z,78935.91
2022-12-06T00:39:51.587Z,78907.50
2022-12-06T00:42:20.781Z,78891.66
2022-12-06T00:44:50.731Z,78908.84
2022-12-06T00:47:20.224Z,78900.91
2022-12-06T00:49:50.210Z,78914.75
2022-12-06T00:52:19.575Z,78892.28
2022-12-06T00:54:49.083Z,78910.13
2022-12-06T00:57:18.663Z,78915.44
2022-12-06T00:59:48.040Z,78900.25
2022-12-06T01:02:17.615Z,78922.69
2022-12-06T01:04:47.025Z,78907.50
2022-12-06T01:07:16.741Z,78918.72
2022-12-06T01:09:46.079Z,78914.75
2022-12-06T01:12:15.696Z,78896.91
2022-12-06T01:14:46.573Z,78893.59
2022-12-06T01:17:16.053Z,78916.72
2022-12-06T01:19:45.352Z,78933.25
2022-12-06T01:22:17.335Z,78933.22
2022-12-06T01:24:49.257Z,78919.41
2022-12-06T01:27:18.512Z,78927.31
2022-12-06T01:29:47.731Z,78909.47
2022-12-06T01:32:17.151Z,78924.00
2022-12-06T01:34:46.638Z,78936.56
2022-12-06T01:37:19.936Z,78920.03
2022-12-06T01:39:49.589Z,78911.44
2022-12-06T01:42:19.178Z,78941.19
2022-12-06T01:44:50.762Z,78936.56
2022-12-06T01:47:26.520Z,78941.19
2022-12-06T01:50:14.645Z,78949.13
2022-12-06T01:52:53.583Z,78949.78
2022-12-06T01:55:31.259Z,78941.19
2022-12-06T01:58:07.028Z,78945.13
2022-12-06T02:00:37.044Z,78955.00
2022-12-06T02:03:12.758Z,78934.53
2022-12-06T02:05:45.931Z,78937.22
2022-12-06T02:08:16.043Z,78948.44
2022-12-06T02:10:45.508Z,78906.84
2022-12-06T02:13:15.157Z,78941.88
2022-12-06T02:15:51.248Z,78959.03
2022-12-06T02:18:30.634Z,78942.50
2022-12-06T02:21:17.609Z,78935.81
2022-12-06T02:24:10.022Z,78964.91
2022-12-06T02:26:51.821Z,78950.34
2022-12-06T02:29:47.414Z,78973.50
2022-12-06T02:32:20.230Z,78975.47
2022-12-06T02:35:16.837Z,78940.44
2022-12-06T02:37:59.795Z,78968.22
2022-12-06T02:40:38.154Z,78933.22
2022-12-06T02:43:19.086Z,78953.06
2022-12-06T02:45:56.604Z,78982.81
2022-12-06T02:48:27.932Z,78991.41
2022-12-06T02:51:08.138Z,78983.47
2022-12-06T02:53:42.253Z,78972.25
2022-12-06T02:56:13.516Z,78966.97
2022-12-06T02:58:43.068Z,78963.00
2022-12-06T03:01:26.192Z,79001.34
2022-12-06T03:04:07.350Z,78999.38
2022-12-06T03:07:03.684Z,79002.00
2022-12-06T03:09:56.041Z,78997.34
2022-12-06T03:12:56.580Z,79000.56
2022-12-06T03:15:35.190Z,79003.13
2022-12-06T03:18:21.312Z,78995.81
2022-12-06T03:20:59.487Z,78987.16
2022-12-06T03:23:35.237Z,78990.41
2022-12-06T03:26:07.010Z,78990.34
2022-12-06T03:28:39.342Z,78977.78
2022-12-06T03:31:13.758Z,79005.44
2022-12-06T03:33:50.827Z,79009.31
2022-12-06T03:36:21.469Z,78994.78
2022-12-06T03:39:01.689Z,79000.00
2022-12-06T03:41:38.293Z,79019.81
2022-12-06T03:44:08.203Z,79031.06
2022-12-06T03:46:42.735Z,79032.41
2022-12-06T03:49:19.161Z,79011.88
2022-12-06T03:51:49.603Z,79036.97
2022-12-06T03:54:19.613Z,79015.81
2022-12-06T03:56:49.021Z,79028.41
2022-12-06T03:59:18.755Z,79034.31
2022-12-06T04:01:48.314Z,79045.56
2022-12-06T04:04:18.089Z,79043.66
2022-12-06T04:06:47.550Z,79052.88
2022-12-06T04:09:35.020Z,78999.38
2022-12-06T04:12:24.587Z,79045.38
2022-12-06T04:14:54.166Z,79048.56
2022-12-06T04:17:41.763Z,79034.03
2022-12-06T04:20:12.074Z,79054.41
2022-12-06T04:23:00.002Z,79055.72
2022-12-06T04:25:29.603Z,79047.16
2022-12-06T04:28:17.395Z,79075.47
2022-12-06T04:31:05.267Z,79068.19
2022-12-06T04:33:53.580Z,79074.78
2022-12-06T04:36:41.078Z,79056.91
2022-12-06T04:39:12.424Z,79075.44
2022-12-06T04:42:02.343Z,79051.63
2022-12-06T04:44:31.794Z,79068.06
2022-12-06T04:47:01.260Z,79071.22
2022-12-06T04:49:30.894Z,79057.94
2022-12-06T04:52:00.301Z,79082.13
2022-12-06T04:54:31.361Z,79076.63
2022-12-06T04:57:01.179Z,79075.06
2022-12-06T04:59:31.350Z,79084.13
2022-12-06T05:02:00.970Z,79056.91
2022-12-06T05:04:30.210Z,79074.44
2022-12-06T05:07:00.037Z,79090.13
2022-12-06T05:09:29.579Z,79065.78
2022-12-06T05:11:59.517Z,79066.06
2022-12-06T05:14:29.680Z,79082.72
2022-12-06T05:17:00.031Z,79041.78
2022-12-06T05:19:30.247Z,79076.50
2022-12-06T05:21:59.499Z,79066.22
2022-12-06T05:24:29.128Z,79037.59
2022-12-06T05:26:58.361Z,79071.78
2022-12-06T05:29:28.087Z,79062.31
2022-12-06T05:31:57.637Z,79037.28
2022-12-06T05:34:27.324Z,79066.22
2022-12-06T05:36:56.913Z,79042.28
2022-12-06T05:39:26.765Z,79045.00
2022-12-06T05:41:56.089Z,79045.88
2022-12-06T05:44:25.838Z,79039.66
2022-12-06T05:46:55.137Z,79053.03
2022-12-06T05:49:24.890Z,79041.03
2022-12-06T05:51:54.379Z,79041.81
2022-12-06T05:54:23.961Z,79052.84
2022-12-06T05:56:53.479Z,79025.00
2022-12-06T05:59:23.145Z,79052.38
2022-12-06T06:01:52.672Z,79042.22
2022-12-06T06:04:22.245Z,79026.97
2022-12-06T06:06:52.564Z,79042.53
2022-12-06T06:09:22.473Z,79029.50
2022-12-06T06:11:52.857Z,79036.00
2022-12-06T06:14:22.779Z,79048.22
2022-12-06T06:16:53.451Z,79036.53
2022-12-06T06:19:25.322Z,79034.16
2022-12-06T06:21:54.906Z,79012.72
2022-12-06T06:24:24.849Z,79024.25
2022-12-06T06:26:54.291Z,79027.28
2022-12-06T06:29:23.379Z,79009.75
2022-12-06T06:31:52.940Z,79020.03
2022-12-06T06:34:22.512Z,78979.06
2022-12-06T06:36:53.246Z,79013.13
2022-12-06T06:39:22.742Z,79000.41
2022-12-06T06:41:52.035Z,78998.09
2022-12-06T06:44:21.406Z,78977.56
2022-12-06T06:46:50.641Z,78993.50
2022-12-06T06:49:20.073Z,78978.13
2022-12-06T06:51:49.319Z,78985.75
2022-12-06T06:54:19.453Z,78988.59
2022-12-06T06:56:48.493Z,78966.19
2022-12-06T06:59:17.965Z,78954.16
2022-12-06T07:01:47.459Z,78973.25
2022-12-06T07:04:17.226Z,78980.63
2022-12-06T07:06:46.795Z,78971.53
2022-12-06T07:09:16.535Z,78958.38
2022-12-06T07:11:46.158Z,78966.06
2022-12-06T07:14:15.671Z,78959.28
2022-12-06T07:16:45.123Z,78951.88
2022-12-06T07:19:14.537Z,78958.94
2022-12-06T07:21:43.648Z,78960.88
2022-12-06T07:24:13.732Z,78956.22
2022-12-06T07:26:42.995Z,78944.25
2022-12-06T07:29:12.349Z,78948.91
2022-12-06T07:31:42.179Z,78937.06
2022-12-06T07:34:11.859Z,78946.41
2022-12-06T07:36:41.144Z,78938.50
2022-12-06T07:39:14.704Z,78934.38
2022-12-06T07:42:03.082Z,78931.97
2022-12-06T07:45:03.114Z,78910.84
2022-12-06T07:47:41.000Z,78923.13
2022-12-06T07:50:17.844Z,78934.06
2022-12-06T07:52:49.762Z,78945.31
2022-12-06T07:55:19.512Z,78943.44
2022-12-06T07:57:49.080Z,78936.03
2022-12-06T08:00:20.320Z,78916.47
2022-12-06T08:02:49.898Z,78930.00
2022-12-06T08:05:19.514Z,78934.59
2022-12-06T08:07:49.549Z,78930.16
2022-12-06T08:10:19.148Z,78933.06
2022-12-06T08:12:48.548Z,78906.25
2022-12-06T08:15:18.171Z,78917.63
2022-12-06T08:17:47.875Z,78915.75
2022-12-06T08:20:17.526Z,78917.44
2022-12-06T08:22:46.957Z,78906.25
2022-12-06T08:25:16.721Z,78908.63
2022-12-06T08:27:46.046Z,78903.09
2022-12-06T08:30:15.974Z,78896.81
2022-12-06T08:32:45.151Z,78909.44
2022-12-06T08:35:15.302Z,78906.13
2022-12-06T08:37:44.986Z,78902.25
2022-12-06T08:40:14.735Z,78898.47
2022-12-06T08:42:47.941Z,78904.47
2022-12-06T08:45:17.531Z,78893.59
2022-12-06T08:47:46.804Z,78881.63
2022-12-06T08:50:16.464Z,78889.13
2022-12-06T08:52:45.635Z,78881.75
2022-12-06T08:55:15.945Z,78871.97
2022-12-06T08:57:45.565Z,78877.97
2022-12-06T09:00:15.568Z,78884.16
2022-12-06T09:02:44.860Z,78867.78
2022-12-06T09:05:14.103Z,78881.25
2022-12-06T09:07:43.737Z,78876.03
2022-12-06T09:10:13.516Z,78878.22
2022-12-06T09:12:43.359Z,78870.47
2022-12-06T09:15:15.413Z,78870.34
2022-12-06T09:17:44.646Z,78885.31
2022-12-06T09:20:19.139Z,78863.56
2022-12-06T09:22:48.779Z,78869.41
2022-12-06T09:25:18.873Z,78875.53
2022-12-06T09:27:49.103Z,78872.75
2022-12-06T09:30:18.651Z,78868.13
2022-12-06T09:32:49.585Z,78870.97
2022-12-06T09:35:24.755Z,78869.88
2022-12-06T09:37:54.985Z,78871.44
2022-12-06T09:40:43.113Z,78861.88
2022-12-06T09:43:33.515Z,78877.38
2022-12-06T09:46:08.479Z,78879.34
2022-12-06T09:49:03.660Z,78872.56
2022-12-06T09:52:04.685Z,78881.72
2022-12-06T09:54:40.025Z,78876.84
2022-12-06T09:57:34.011Z,78874.47
2022-12-06T10:00:22.318Z,78874.63
2022-12-06T10:03:28.983Z,78875.16
2022-12-06T10:06:06.683Z,78870.53
2022-12-06T10:09:03.569Z,78862.66
2022-12-06T10:11:45.418Z,78876.31
2022-12-06T10:14:32.076Z,78852.66
2022-12-06T10:17:10.396Z,78873.56
2022-12-06T10:20:01.822Z,78868.31
2022-12-06T10:22:49.721Z,78863.13
2022-12-06T10:25:28.743Z,78861.72
2022-12-06T10:28:23.603Z,78866.53
2022-12-06T10:30:57.331Z,78858.19
2022-12-06T10:33:32.756Z,78868.09
2022-12-06T10:36:06.464Z,78841.47
2022-12-06T10:39:27.849Z,78866.94
2022-12-06T10:42:22.092Z,78867.59
2022-12-06T10:45:38.956Z,78869.31
2022-12-06T10:48:31.544Z,78867.75
2022-12-06T10:51:12.450Z,78862.19
2022-12-06T10:53:51.339Z,78863.13
2022-12-06T10:56:30.911Z,78870.47
2022-12-06T10:59:21.650Z,78874.72
2022-12-06T11:01:53.430Z,78864.56
2022-12-06T11:04:35.938Z,78877.75
2022-12-06T11:07:17.661Z,78886.44
2022-12-06T11:09:52.061Z,78862.38
2022-12-06T11:12:33.128Z,78883.22
2022-12-06T11:15:18.475Z,78882.06
2022-12-06T11:17:58.018Z,78875.84
2022-12-06T11:20:39.797Z,78888.78
2022-12-06T11:23:15.389Z,78876.25
2022-12-06T11:26:08.022Z,78881.88
2022-12-06T11:28:45.046Z,78869.91
2022-12-06T11:31:49.858Z,78884.97
2022-12-06T11:34:22.219Z,78883.84
2022-12-06T11:36:59.792Z,78874.44
2022-12-06T11:39:32.247Z,78878.78
2022-12-06T11:42:05.762Z,78892.94
2022-12-06T11:44:51.140Z,78895.66
2022-12-06T11:47:24.409Z,78895.84
2022-12-06T11:49:58.609Z,78894.72
2022-12-06T11:52:40.314Z,78894.97
2022-12-06T11:55:17.174Z,78882.63
2022-12-06T11:57:57.339Z,78877.53
2022-12-06T12:00:27.608Z,78878.38
2022-12-06T12:02:58.713Z,78883.22
2022-12-06T12:05:35.320Z,78903.88
2022-12-06T12:08:27.243Z,78884.19
2022-12-06T12:11:05.727Z,78881.06
2022-12-06T12:13:48.318Z,78887.72
2022-12-06T12:16:22.067Z,78899.03
2022-12-06T12:18:56.605Z,78878.00
2022-12-06T12:21:44.122Z,78898.44
2022-12-06T12:25:03.216Z,78907.13
2022-12-06T12:27:45.631Z,78893.28
2022-12-06T12:30:34.601Z,78904.44
2022-12-06T12:33:16.860Z,78901.81
2022-12-06T12:35:49.919Z,78884.09
2022-12-06T12:38:42.027Z,78906.47
2022-12-06T12:41:34.913Z,78903.78
2022-12-06T12:44:37.079Z,78913.69
2022-12-06T12:47:07.639Z,78915.13
2022-12-06T12:49:40.018Z,78918.41
2022-12-06T12:52:31.807Z,78922.97
2022-12-06T12:55:23.478Z,78914.41
2022-12-06T12:58:00.328Z,78934.25
2022-12-06T13:00:31.110Z,78940.94
2022-12-06T13:03:14.210Z,78942.34
2022-12-06T13:05:55.216Z,78889.00
2022-12-06T13:08:31.703Z,78942.59
2022-12-06T13:11:03.423Z,78941.31
2022-12-06T13:13:40.760Z,78950.00
2022-12-06T13:16:16.601Z,78947.41
2022-12-06T13:18:58.879Z,78948.81
2022-12-06T13:21:42.324Z,78938.31
2022-12-06T13:24:16.874Z,78954.88
2022-12-06T13:26:50.823Z,78955.59
2022-12-06T13:29:19.881Z,78956.25
2022-12-06T13:31:52.094Z,78962.25
2022-12-06T13:34:59.576Z,78961.63
2022-12-06T13:37:36.267Z,78966.25
2022-12-06T13:40:07.696Z,78960.31
2022-12-06T13:42:39.269Z,78965.63
2022-12-06T13:45:46.458Z,78976.19
2022-12-06T13:48:37.260Z,78972.25
2022-12-06T13:51:30.821Z,78976.22
2022-12-06T13:54:05.921Z,78976.88
2022-12-06T13:56:34.799Z,78980.81
2022-12-06T13:59:13.836Z,78968.25
2022-12-06T14:01:56.084Z,78977.50
2022-12-06T14:09:48.699Z,78970.94
2022-12-06T14:12:27.455Z,78984.13
2022-12-06T14:15:01.321Z,78955.75
2022-12-06T14:20:32.981Z,78967.63
2022-12-06T14:23:02.020Z,78976.22
2022-12-06T14:25:32.261Z,78978.88
2022-12-06T14:28:08.640Z,78992.06
2022-12-06T14:30:38.150Z,78963.00
2022-12-06T14:33:27.512Z,78975.56
2022-12-06T14:35:57.822Z,78986.13
2022-12-06T14:38:31.862Z,78991.41
2022-12-06T14:41:38.846Z,78967.63
2022-12-06T14:44:16.806Z,78983.47
2022-12-06T14:46:48.323Z,78949.13
2022-12-06T14:49:41.071Z,78988.75
2022-12-06T14:52:43.154Z,78978.19
2022-12-06T14:55:20.548Z,78985.47
2022-12-06T14:57:52.451Z,78974.22
2022-12-06T15:00:28.158Z,78961.66
2022-12-06T15:03:07.643Z,78984.81
2022-12-06T15:05:38.127Z,78992.06
2022-12-06T15:08:28.360Z,78991.41
2022-12-06T15:11:01.806Z,78988.09
2022-12-06T15:13:31.794Z,78999.31
2022-12-06T15:16:18.563Z,78988.72
2022-12-06T15:19:01.842Z,78984.75
2022-12-06T15:21:31.089Z,78990.06
2022-12-06T15:23:59.750Z,78984.75
2022-12-06T15:26:29.005Z,78997.97
2022-12-06T15:28:58.092Z,78992.69
2022-12-06T15:31:30.943Z,78994.66
2022-12-06T15:33:59.930Z,78946.44
2022-12-06T15:36:32.139Z,78994.03
2022-12-06T15:39:01.562Z,78984.09
2022-12-06T15:41:31.293Z,78984.09
2022-12-06T15:44:00.355Z,78991.38
2022-12-06T15:46:30.840Z,78951.09
2022-12-06T15:49:00.780Z,78988.78
2022-12-06T15:51:30.639Z,78964.97
2022-12-06T15:54:00.901Z,78981.50
2022-12-06T15:56:31.719Z,78969.59
2022-12-06T15:59:00.608Z,78986.78
2022-12-06T16:01:46.626Z,78994.06
2022-12-06T16:04:25.312Z,78988.13
2022-12-06T16:07:02.191Z,78993.41
2022-12-06T16:09:51.291Z,78945.81
2022-12-06T16:12:23.118Z,78951.13
2022-12-06T16:14:59.533Z,78996.03
2022-12-06T16:17:28.748Z,78981.50
2022-12-06T16:24:11.430Z,79000.69
2022-12-06T16:26:34.624Z,78976.22
2022-12-06T16:29:06.153Z,78992.06
2022-12-06T16:31:38.481Z,78949.13
2022-12-06T16:34:09.755Z,78967.63
2022-12-06T16:37:02.116Z,78986.13
2022-12-06T16:39:33.104Z,78987.44
2022-12-06T16:42:02.920Z,78969.59
2022-12-06T16:44:32.632Z,78994.03
2022-12-06T16:47:01.646Z,78968.25
2022-12-06T16:49:48.888Z,78961.63
2022-12-06T16:52:19.327Z,78983.41
2022-12-06T16:54:48.364Z,78961.59
2022-12-06T16:57:20.538Z,78978.13
2022-12-06T16:59:49.770Z,78972.88
2022-12-06T17:02:30.803Z,78984.78
2022-12-06T17:05:07.071Z,78968.91
2022-12-06T17:07:37.766Z,78985.47
2022-12-06T17:10:07.221Z,78946.47
2022-12-06T17:12:36.329Z,78969.63
2022-12-06T17:15:06.071Z,78951.75
2022-12-06T17:17:35.044Z,78966.31
2022-12-06T17:20:04.022Z,78944.50
2022-12-06T17:22:32.993Z,78969.59
2022-12-06T17:25:02.365Z,78973.56
2022-12-06T17:27:31.188Z,78977.56
2022-12-06T17:30:00.572Z,78986.09
2022-12-06T17:32:30.974Z,78999.34
2022-12-06T17:35:00.982Z,78961.69
2022-12-06T17:37:29.905Z,78980.84
2022-12-06T17:39:58.885Z,78959.03
2022-12-06T17:42:46.421Z,78987.44
2022-12-06T17:45:15.446Z,78978.19
2022-12-06T17:47:44.182Z,78994.72
2022-12-06T17:50:13.282Z,78989.44
2022-12-06T17:52:42.093Z,78978.84
2022-12-06T17:55:15.951Z,78976.88
2022-12-06T17:57:44.882Z,78976.88
2022-12-06T18:00:14.236Z,78963.66
2022-12-06T18:02:43.887Z,78966.28
2022-12-06T18:05:15.119Z,78949.13
2022-12-06T18:07:44.020Z,78966.31
2022-12-06T18:10:12.972Z,78941.84
2022-12-06T18:12:41.751Z,78977.53
2022-12-06T18:15:30.661Z,78974.22
2022-12-06T18:17:59.552Z,78975.50
2022-12-06T18:20:28.370Z,78955.66
2022-12-06T18:22:57.254Z,78958.31
2022-12-06T18:25:25.929Z,78935.88
2022-12-06T18:27:54.785Z,78971.59
2022-12-06T18:30:23.727Z,78951.09
2022-12-06T18:32:52.540Z,78963.00
2022-12-06T18:35:21.297Z,78961.69
2022-12-06T18:37:50.960Z,78968.94
2022-12-06T18:40:20.406Z,78963.66
2022-12-06T18:42:49.873Z,78984.13
2022-12-06T18:45:18.859Z,78981.50
2022-12-06T18:47:48.581Z,78972.25
2022-12-06T18:50:17.403Z,78965.00
2022-12-06T18:52:46.602Z,78926.00
2022-12-06T18:55:15.226Z,78955.72
2022-12-06T18:57:44.192Z,78963.00
2022-12-06T19:00:13.681Z,78965.66
2022-12-06T19:02:42.771Z,78979.53
2022-12-06T19:05:11.778Z,78978.88
2022-12-06T19:07:40.805Z,78963.66
2022-12-06T19:10:10.108Z,78982.81
2022-12-06T19:12:39.110Z,78988.13
2022-12-06T19:15:08.578Z,78888.34
2022-12-06T19:17:37.469Z,78963.00
2022-12-06T19:20:06.672Z,78961.03
2022-12-06T19:22:36.115Z,78976.22
2022-12-06T19:25:05.003Z,78984.13
2022-12-06T19:27:34.067Z,78984.81
2022-12-06T19:30:03.712Z,78981.50
2022-12-06T19:32:33.517Z,78949.78
2022-12-06T19:35:08.374Z,78971.59
2022-12-06T19:37:38.455Z,78962.34
2022-12-06T19:40:08.376Z,78953.75
2022-12-06T19:42:55.522Z,78938.56
2022-12-06T19:45:25.512Z,78953.75
2022-12-06T19:47:54.270Z,78943.84
2022-12-06T19:50:23.209Z,78957.06
2022-12-06T19:52:52.139Z,78947.13
2022-12-06T19:55:21.174Z,78960.31
2022-12-06T19:57:50.003Z,78931.91
2022-12-06T20:00:22.765Z,78938.53
2022-12-06T20:02:51.982Z,78922.69
2022-12-06T20:05:20.805Z,78929.28
2022-12-06T20:07:49.767Z,78934.56
2022-12-06T20:10:18.596Z,78908.78
2022-12-06T20:12:47.873Z,78930.59
2022-12-06T20:15:16.813Z,78904.16
2022-12-06T20:17:46.273Z,78890.97
2022-12-06T20:20:15.128Z,78920.69
2022-12-06T20:22:44.053Z,78907.44
2022-12-06T20:25:15.025Z,78921.38
2022-12-06T20:27:53.081Z,78925.97
2022-12-06T20:30:23.880Z,78929.28
2022-12-06T20:32:52.928Z,78927.97
2022-12-06T20:35:21.862Z,78899.56
2022-12-06T20:37:53.996Z,78912.75
2022-12-06T20:40:28.239Z,78929.94
2022-12-06T20:42:59.970Z,78908.81
2022-12-06T20:45:28.793Z,78902.84
2022-12-06T20:47:57.930Z,78910.16
2022-12-06T20:50:26.876Z,78916.72
2022-12-06T20:52:56.053Z,78917.41
2022-12-06T20:55:24.773Z,78900.88
2022-12-06T20:57:53.702Z,78890.34
2022-12-06T21:00:23.441Z,78896.28
2022-12-06T21:02:52.769Z,78909.47
2022-12-06T21:05:21.622Z,78855.34
2022-12-06T21:07:50.881Z,78881.72
2022-12-06T21:10:19.667Z,78866.53
2022-12-06T21:12:48.733Z,78907.47
2022-12-06T21:15:17.722Z,78854.00
2022-12-06T21:17:46.642Z,78910.09
2022-12-06T21:20:15.375Z,78869.19
2022-12-06T21:22:44.432Z,78914.09
2022-12-06T21:25:14.868Z,78898.22
2022-12-06T21:27:43.977Z,78890.97
2022-12-06T21:30:13.148Z,78896.28
2022-12-06T21:32:42.246Z,78881.75
2022-12-06T21:35:14.943Z,78861.28
2022-12-06T21:37:43.928Z,78895.59
2022-12-06T21:40:13.416Z,78859.31
2022-12-06T21:42:42.931Z,78895.59
2022-12-06T21:45:12.165Z,78886.34
2022-12-06T21:47:41.120Z,78885.03
2022-12-06T21:50:10.610Z,78886.34
2022-12-06T21:52:40.124Z,78879.75
2022-12-06T21:55:15.013Z,78896.25
2022-12-06T21:57:44.454Z,78858.59
2022-12-06T22:00:14.031Z,78885.00
2022-12-06T22:02:44.795Z,78863.88
2022-12-06T22:05:13.967Z,78854.63
2022-12-06T22:07:42.735Z,78838.16
2022-12-06T22:10:12.448Z,78873.81
2022-12-06T22:12:41.542Z,78887.00
2022-12-06T22:15:10.786Z,78859.28
2022-12-06T22:17:39.834Z,78869.16
2022-12-06T22:20:09.177Z,78881.69
2022-12-06T22:22:37.882Z,78844.06
2022-12-06T22:25:08.089Z,78868.50
2022-12-06T22:27:37.352Z,78844.75
2022-12-06T22:30:06.964Z,78844.75
2022-12-06T22:32:36.069Z,78867.16
2022-12-06T22:35:05.106Z,78849.34
2022-12-06T22:37:33.934Z,78850.00
2022-12-06T22:40:03.128Z,78827.56
2022-12-06T22:42:36.775Z,78850.00
2022-12-06T22:45:06.333Z,78829.53
2022-12-06T22:47:35.205Z,78827.56
2022-12-06T22:50:04.489Z,78857.22
2022-12-06T22:52:33.348Z,78840.09
2022-12-06T22:55:02.581Z,78850.63
2022-12-06T22:57:31.432Z,78816.31
2022-12-06T23:00:00.749Z,78855.25
2022-12-06T23:02:29.787Z,78840.03
2022-12-06T23:04:59.032Z,78849.34
2022-12-06T23:07:27.884Z,78801.19
2022-12-06T23:09:57.205Z,78836.81
2022-12-06T23:12:25.849Z,78832.88
2022-12-06T23:14:54.960Z,78858.63
2022-12-06T23:17:23.877Z,78847.41
2022-12-06T23:19:52.781Z,78836.16
2022-12-06T23:22:21.509Z,78848.69
2022-12-06T23:24:51.622Z,78865.19
2022-12-06T23:27:20.483Z,78861.25
2022-12-06T23:29:49.575Z,78823.59
2022-12-06T23:32:20.299Z,78863.84
2022-12-06T23:34:49.416Z,78834.81
2022-12-06T23:37:18.102Z,78858.53
2022-12-06T23:39:47.116Z,78859.84
2022-12-06T23:42:15.858Z,78836.75
2022-12-06T23:44:44.749Z,78849.28
2022-12-06T23:47:13.448Z,78827.53
2022-12-06T23:49:42.719Z,78828.13
2022-12-06T23:52:11.632Z,78827.44
2022-12-06T23:54:40.866Z,78821.41
2022-12-06T23:57:09.682Z,78780.47
2022-12-06T23:59:38.727Z,78804.94
